Terminal Aerodrome Forecast
Issued by NWS

Home | Current Version | Previous Version | Text Only | Print | Product List | Glossary On
Versions: 1 2 3 4 5 6 7 8 9 10 11 12 13 14 15 16 17 18 19 20 21 22 23 24 25 26 27 28 29 30
000
FTUS43 KDMX 231733
TAFFOD
TAF
KFOD 231733Z 2318/2418 15009KT P6SM SCT250
     FM231900 15009KT P6SM BKN200
     FM240000 13008KT P6SM VCSH OVC060
     FM240300 13009KT 6SM -RA OVC050
     FM240700 12008KT 5SM -RA OVC015
     FM241100 08007KT 3SM -RA OVC006=

USA.gov is the U.S. government's official web portal to all federal, state and local government web resources and services.